Time;durP1;ratioP1;P1;durP2;ratioP2;P2;SDS_P1;SDS_P2;PMS_P1;PMS_P2;Temp;Humidity;BMP_temperature;BMP_pressure;BME280_temperature;BME280_humidity;BME280_pressure;Samples;Min_cycle;Max_cycle;Signal;HPM_P1;HPM_P2
2022/12/08 00:01:31;;;;;;;;;46.25;38.25;;;;;8.98;71.32;-19452.88;5011842;28;47268;-91
2022/12/08 00:04:01;;;;;;;;;52.50;40.75;;;;;8.88;71.31;-19450.31;5022597;28;46053;-93
2022/12/08 00:09:26;;;;;;;;;48.50;38.50;;;;;8.97;71.70;-19452.47;5020483;28;45509;-93
2022/12/08 00:11:59;;;;;;;;;45.00;37.75;;;;;8.94;71.43;-19451.78;5024742;28;48684;-95
2022/12/08 00:14:28;;;;;;;;;47.75;37.50;;;;;8.80;71.59;-19448.16;4994790;28;46154;-95
2022/12/08 00:16:54;;;;;;;;;48.00;39.50;;;;;8.91;71.55;-19451.00;5015658;28;45403;-92
2022/12/08 00:19:20;;;;;;;;;47.25;39.50;;;;;8.72;71.56;-19445.84;5033676;28;45573;-91
2022/12/08 00:21:45;;;;;;;;;42.75;35.25;;;;;8.60;71.45;-19442.88;5001518;28;47101;-91
2022/12/08 00:24:11;;;;;;;;;45.00;36.25;;;;;8.08;71.56;-19428.94;5022516;28;45851;-92
2022/12/08 00:26:37;;;;;;;;;47.75;40.25;;;;;8.25;71.57;-19433.69;5017778;28;45668;-92
2022/12/08 00:29:03;;;;;;;;;47.75;37.75;;;;;8.32;71.53;-19435.31;5016455;28;45456;-92
2022/12/08 00:31:28;;;;;;;;;44.75;39.00;;;;;8.41;71.76;-19437.75;5014703;28;47029;-91
2022/12/08 00:33:54;;;;;;;;;44.00;36.75;;;;;8.09;71.45;-19429.34;5017477;28;45385;-92
2022/12/08 00:36:19;;;;;;;;;51.25;40.25;;;;;8.06;71.96;-19428.53;5018080;28;45776;-92
2022/12/08 00:38:47;;;;;;;;;45.75;38.00;;;;;8.85;71.77;-19449.38;5020116;28;45350;-93
2022/12/08 00:42:10;;;;;;;;;48.75;41.00;;;;;8.84;71.97;-19449.22;5004234;28;47525;-93
2022/12/08 00:44:05;;;;;;;;;49.00;39.25;;;;;8.84;71.95;-19449.09;5017764;28;45420;-92
2022/12/08 00:46:31;;;;;;;;;53.00;41.75;;;;;8.64;72.00;-19443.97;5013368;28;45517;-93
2022/12/08 00:48:56;;;;;;;;;51.75;42.00;;;;;8.60;72.26;-19442.88;5016251;28;45458;-92
2022/12/08 00:51:21;;;;;;;;;44.50;39.25;;;;;8.82;72.02;-19448.56;5016818;28;48291;-93
2022/12/08 00:53:47;;;;;;;;;53.50;42.00;;;;;8.68;72.48;-19444.78;5017215;28;45624;-92
2022/12/08 00:56:12;;;;;;;;;43.75;37.00;;;;;7.74;72.21;-19420.03;4999930;28;45805;-91
2022/12/08 00:58:38;;;;;;;;;54.00;42.75;;;;;8.41;72.25;-19437.75;5015614;28;45442;-90
2022/12/08 01:01:09;;;;;;;;;50.25;41.00;;;;;8.13;71.79;-19430.44;5016586;28;47071;-90
2022/12/08 01:03:34;;;;;;;;;44.50;39.00;;;;;8.26;72.26;-19433.81;5010605;28;45969;-90
2022/12/08 01:06:02;;;;;;;;;52.25;41.50;;;;;8.18;72.07;-19431.78;5005110;28;45731;-90
2022/12/08 01:08:28;;;;;;;;;51.50;41.25;;;;;8.73;72.24;-19446.13;4998459;28;45539;-90
2022/12/08 01:10:53;;;;;;;;;51.25;40.25;;;;;8.38;71.97;-19437.06;4992570;28;47928;-90
2022/12/08 01:13:18;;;;;;;;;47.00;39.50;;;;;8.07;71.94;-19428.69;5014739;28;45427;-89
2022/12/08 01:15:44;;;;;;;;;47.75;38.00;;;;;8.44;72.21;-19438.56;5022978;28;45573;-91
2022/12/08 01:18:09;;;;;;;;;41.50;35.75;;;;;8.62;72.32;-19443.28;5005530;28;45545;-90
2022/12/08 01:20:35;;;;;;;;;49.50;39.75;;;;;8.29;72.14;-19434.63;5021941;28;47211;-91
2022/12/08 01:23:00;;;;;;;;;50.75;41.25;;;;;8.03;72.24;-19427.72;5006094;28;45362;-91
2022/12/08 01:25:25;;;;;;;;;49.75;40.00;;;;;8.20;72.01;-19432.31;5011639;28;45459;-91
2022/12/08 01:27:52;;;;;;;;;53.75;44.00;;;;;8.45;72.34;-19438.81;4998350;28;45589;-91
2022/12/08 01:30:18;;;;;;;;;51.25;41.75;;;;;8.12;72.00;-19430.03;5027512;28;48127;-90
2022/12/08 01:32:44;;;;;;;;;52.75;41.25;;;;;8.15;72.18;-19430.84;5015613;28;45772;-91
2022/12/08 01:35:09;;;;;;;;;57.00;45.50;;;;;7.86;72.06;-19423.25;5018992;28;45552;-90
2022/12/08 01:37:35;;;;;;;;;65.25;48.50;;;;;7.53;72.11;-19414.47;5019237;28;45347;-90
2022/12/08 01:40:00;;;;;;;;;69.50;55.50;;;;;7.82;72.60;-19422.19;5035621;28;45537;-90
2022/12/08 01:42:26;;;;;;;;;77.50;62.50;;;;;7.92;72.55;-19424.75;5034551;28;45394;-91
2022/12/08 01:44:55;;;;;;;;;80.25;69.75;;;;;8.30;73.07;-19434.91;5002570;28;45907;-90
2022/12/08 01:47:24;;;;;;;;;79.25;71.00;;;;;8.32;72.70;-19435.44;4985347;28;45524;-90
2022/12/08 01:49:50;;;;;;;;;84.25;77.75;;;;;8.32;72.65;-19435.31;5012562;28;47397;-91
2022/12/08 01:52:22;;;;;;;;;93.75;83.25;;;;;7.94;72.80;-19425.44;5015704;28;45402;-91
2022/12/08 01:54:54;;;;;;;;;80.00;64.25;;;;;8.21;73.05;-19432.47;5028323;28;45366;-91
2022/12/08 01:57:26;;;;;;;;;70.75;56.75;;;;;8.30;73.57;-19434.91;4985415;28;45718;-92
2022/12/08 01:59:59;;;;;;;;;64.00;49.00;;;;;8.31;73.38;-19435.03;5014922;28;48083;-91
2022/12/08 02:02:30;;;;;;;;;61.25;48.50;;;;;8.31;73.40;-19435.03;5023558;28;45960;-91
2022/12/08 02:04:55;;;;;;;;;52.25;43.75;;;;;8.17;73.33;-19431.38;5015272;28;45392;-91
2022/12/08 02:07:22;;;;;;;;;51.25;43.25;;;;;7.73;73.60;-19419.75;5014017;28;45500;-92
2022/12/08 02:09:47;;;;;;;;;52.00;42.00;;;;;8.29;73.44;-19434.63;5009083;28;47302;-91
2022/12/08 02:12:12;;;;;;;;;53.75;44.50;;;;;8.05;73.29;-19428.28;5014997;28;45943;-91
2022/12/08 02:14:38;;;;;;;;;51.25;43.00;;;;;7.78;73.32;-19421.22;4998953;28;45331;-89
2022/12/08 02:17:25;;;;;;;;;49.75;41.00;;;;;8.32;73.84;-19435.31;5012754;28;45529;-91
2022/12/08 02:19:50;;;;;;;;;50.00;39.50;;;;;8.30;73.25;-19434.91;5002198;28;48438;-90
2022/12/08 02:22:25;;;;;;;;;58.00;44.00;;;;;8.20;73.66;-19432.31;5006103;28;45692;-89
2022/12/08 02:25:09;;;;;;;;;45.00;37.50;;;;;8.27;73.58;-19433.94;5014175;28;45478;-90
2022/12/08 02:27:58;;;;;;;;;51.25;39.50;;;;;7.88;73.48;-19423.66;5024502;28;45434;-90
2022/12/08 02:31:08;;;;;;;;;50.75;41.25;;;;;8.27;73.99;-19433.94;5014904;28;47205;-89
2022/12/08 02:34:16;;;;;;;;;48.25;37.50;;;;;7.89;73.67;-19423.94;5012718;28;45664;-90
2022/12/08 02:36:51;;;;;;;;;44.25;37.00;;;;;8.25;73.68;-19433.69;5010517;28;45407;-89
2022/12/08 02:39:44;;;;;;;;;49.25;41.50;;;;;7.32;73.92;-19409.06;5018386;28;45477;-90
2022/12/08 02:42:20;;;;;;;;;51.25;39.75;;;;;8.25;73.93;-19433.53;5015022;28;47218;-90
2022/12/08 02:44:58;;;;;;;;;51.25;39.00;;;;;8.23;74.00;-19433.13;5002448;28;45611;-89
2022/12/08 02:47:26;;;;;;;;;50.75;41.50;;;;;7.76;74.20;-19420.56;5011174;28;45535;-89
2022/12/08 02:49:53;;;;;;;;;48.50;38.75;;;;;7.95;73.71;-19425.69;5028708;28;45613;-90
2022/12/08 02:52:18;;;;;;;;;51.00;40.75;;;;;8.30;74.48;-19434.75;5004182;28;48213;-89
2022/12/08 02:54:49;;;;;;;;;52.50;39.75;;;;;8.29;74.07;-19434.50;5013693;28;45448;-91
2022/12/08 02:57:54;;;;;;;;;50.50;40.75;;;;;7.82;74.02;-19422.31;5006749;28;45410;-91
2022/12/08 03:00:22;;;;;;;;;56.00;45.25;;;;;8.14;74.08;-19430.69;5000548;28;45569;-90
2022/12/08 03:02:53;;;;;;;;;53.75;42.00;;;;;8.29;73.72;-19434.63;5009667;28;48128;-90
2022/12/08 03:05:37;;;;;;;;;43.75;36.50;;;;;8.31;73.51;-19435.03;5007225;28;45981;-90
2022/12/08 03:08:31;;;;;;;;;51.75;36.50;;;;;7.95;73.65;-19425.69;5015944;28;45385;-90
2022/12/08 03:10:59;;;;;;;;;48.75;39.75;;;;;8.28;73.57;-19434.22;5008099;28;45697;-90
2022/12/08 03:16:03;;;;;;;;;44.50;38.25;;;;;8.30;73.94;-19434.75;5168936;22;46178;-93
2022/12/08 03:18:35;;;;;;;;;49.00;38.25;;;;;8.02;73.78;-19427.59;5051356;28;45342;-93
2022/12/08 03:21:01;;;;;;;;;35.25;32.00;;;;;8.29;73.60;-19434.50;5034066;28;45668;-93
2022/12/08 03:23:28;;;;;;;;;53.00;38.75;;;;;7.74;73.95;-19420.03;5032645;28;48407;-92
2022/12/08 03:26:27;;;;;;;;;43.50;35.50;;;;;8.29;73.79;-19434.63;5020290;28;46237;-91
2022/12/08 03:28:53;;;;;;;;;47.75;37.25;;;;;8.18;73.91;-19431.78;5016283;28;45447;-92
2022/12/08 03:31:20;;;;;;;;;37.00;35.00;;;;;7.85;73.77;-19423.00;5039635;28;45497;-93
2022/12/08 03:33:50;;;;;;;;;48.25;40.00;;;;;8.14;73.82;-19430.69;5032826;28;47386;-93
2022/12/08 03:36:16;;;;;;;;;47.75;37.25;;;;;7.92;73.82;-19424.88;5034096;28;45435;-94
2022/12/08 03:38:44;;;;;;;;;48.75;37.00;;;;;8.28;73.97;-19434.34;5017597;28;45527;-93
2022/12/08 03:41:19;;;;;;;;;44.50;37.25;;;;;8.29;73.43;-19434.63;5050016;28;45457;-93
2022/12/08 03:43:50;;;;;;;;;43.25;34.25;;;;;8.29;73.91;-19434.63;5045165;28;47450;-92
2022/12/08 03:46:22;;;;;;;;;46.00;35.25;;;;;7.60;73.78;-19416.38;5029569;28;45500;-96
2022/12/08 03:48:49;;;;;;;;;46.75;35.25;;;;;7.60;73.75;-19416.50;5050337;28;45254;-96
2022/12/08 03:53:49;;;;;;;;;42.75;35.25;;;;;7.23;73.46;-19406.47;5654734;22;45888;-95
2022/12/08 03:56:18;;;;;;;;;44.50;35.75;;;;;8.30;73.66;-19434.91;5009436;28;45926;-95
2022/12/08 03:58:43;;;;;;;;;41.75;34.50;;;;;6.36;73.58;-19383.59;4997686;28;45591;-95
2022/12/08 04:01:09;;;;;;;;;47.75;37.25;;;;;7.65;73.64;-19417.59;5008568;28;45575;-96
2022/12/08 04:03:35;;;;;;;;;46.00;36.25;;;;;6.64;73.71;-19391.03;5000059;28;47824;-96
2022/12/08 04:06:00;;;;;;;;;39.25;32.00;;;;;7.60;73.38;-19416.38;5016836;28;45579;-95
2022/12/08 04:08:26;;;;;;;;;45.75;36.50;;;;;7.96;73.58;-19425.84;5015426;23;45287;-93
2022/12/08 04:10:51;;;;;;;;;41.75;34.75;;;;;8.35;73.45;-19436.25;4993181;28;45646;-92
2022/12/08 04:13:17;;;;;;;;;40.75;35.25;;;;;7.91;73.14;-19424.47;4967517;28;48118;-91
2022/12/08 04:15:46;;;;;;;;;38.25;35.25;;;;;8.33;73.69;-19435.72;4979460;28;45471;-93
2022/12/08 04:18:12;;;;;;;;;47.25;37.25;;;;;7.44;72.92;-19412.16;4960199;28;45412;-92
2022/12/08 04:20:40;;;;;;;;;44.75;36.00;;;;;8.26;73.53;-19433.81;4982198;28;45333;-93
2022/12/08 04:23:05;;;;;;;;;44.00;35.25;;;;;7.11;72.84;-19403.38;4984947;28;47990;-94
2022/12/08 04:25:30;;;;;;;;;40.50;32.00;;;;;8.28;72.83;-19434.22;4977828;28;45342;-92
2022/12/08 04:27:56;;;;;;;;;38.00;32.75;;;;;7.98;72.61;-19426.38;4985343;28;45507;-95
2022/12/08 04:30:21;;;;;;;;;49.25;38.25;;;;;7.94;72.95;-19425.28;4992152;28;45269;-91
2022/12/08 04:32:46;;;;;;;;;40.00;34.50;;;;;7.29;72.85;-19408.25;4979604;28;47223;-91
2022/12/08 04:35:12;;;;;;;;;33.50;30.25;;;;;7.77;72.86;-19420.81;4994208;28;45431;-95
2022/12/08 04:37:37;;;;;;;;;41.25;33.75;;;;;8.06;72.79;-19428.53;4983015;28;45455;-96
2022/12/08 04:40:03;;;;;;;;;36.75;32.75;;;;;8.22;73.23;-19432.88;4994465;28;45552;-94
2022/12/08 04:42:28;;;;;;;;;47.25;36.75;;;;;8.02;73.41;-19427.47;4992820;28;47481;-95
2022/12/08 04:44:54;;;;;;;;;49.00;36.00;;;;;7.93;73.67;-19425.16;4995612;28;45444;-96
2022/12/08 04:47:21;;;;;;;;;44.75;35.75;;;;;8.03;73.65;-19427.88;4985239;28;45489;-95
2022/12/08 04:49:46;;;;;;;;;47.50;35.75;;;;;8.04;73.41;-19428.13;4968630;28;45491;-94
2022/12/08 04:52:11;;;;;;;;;41.25;35.75;;;;;8.01;73.38;-19427.19;4968660;28;47108;-95
2022/12/08 04:54:37;;;;;;;;;35.00;32.50;;;;;7.73;73.20;-19419.88;4982557;28;45384;-95
2022/12/08 04:57:02;;;;;;;;;33.50;32.00;;;;;7.96;73.43;-19425.84;4986661;28;45473;-95
2022/12/08 04:59:28;;;;;;;;;34.75;31.75;;;;;7.53;72.98;-19414.47;4983792;28;45266;-93
2022/12/08 05:01:53;;;;;;;;;41.25;33.00;;;;;6.37;73.01;-19383.88;5581813;23;47405;-95
2022/12/08 05:04:19;;;;;;;;;35.33;31.00;;;;;7.85;73.01;-19422.88;5480121;22;46636;-95
2022/12/08 05:06:46;;;;;;;;;34.00;31.75;;;;;7.93;73.17;-19425.03;5000572;28;45503;-94
2022/12/08 05:09:12;;;;;;;;;31.75;27.25;;;;;7.83;72.99;-19422.59;5013974;28;45367;-95
2022/12/08 05:11:40;;;;;;;;;33.00;32.50;;;;;7.99;73.09;-19426.66;5029864;23;46828;-95
2022/12/08 05:14:09;;;;;;;;;36.25;27.00;;;;;7.34;72.86;-19409.47;5060973;28;45425;-93
2022/12/08 05:16:36;;;;;;;;;34.50;32.00;;;;;8.03;72.73;-19427.88;5057581;28;45384;-93
2022/12/08 05:19:01;;;;;;;;;32.33;29.33;;;;;7.47;72.59;-19412.97;5071348;28;45576;-95
2022/12/08 05:21:27;;;;;;;;;30.67;23.33;;;;;7.70;72.41;-19419.06;5079097;28;48600;-93
2022/12/08 05:23:52;;;;;;;;;29.33;27.00;;;;;7.41;72.51;-19411.34;5064366;28;45503;-94
2022/12/08 05:26:17;;;;;;;;;26.67;24.33;;;;;7.15;72.38;-19404.44;5080009;28;45358;-93
2022/12/08 05:28:43;;;;;;;;;37.50;26.75;;;;;7.41;72.19;-19411.34;5076989;28;45632;-95
2022/12/08 05:31:09;;;;;;;;;26.67;23.00;;;;;7.79;72.48;-19421.50;5072816;28;45613;-94
2022/12/08 05:33:35;;;;;;;;;28.67;26.00;;;;;6.91;72.19;-19398.22;5067883;28;45353;-93
2022/12/08 05:36:00;;;;;;;;;28.67;24.33;;;;;7.35;72.35;-19409.88;5067687;28;45553;-92
2022/12/08 05:38:25;;;;;;;;;28.67;24.00;;;;;6.88;72.44;-19397.41;5069427;28;45418;-92
2022/12/08 05:40:51;;;;;;;;;31.67;25.00;;;;;7.11;72.28;-19403.50;5045955;28;46935;-92
2022/12/08 05:43:16;;;;;;;;;15.33;13.00;;;;;6.65;72.37;-19391.31;5044056;28;45743;-93
2022/12/08 05:45:41;;;;;;;;;26.67;23.33;;;;;7.63;72.51;-19417.03;5072659;28;45455;-94
2022/12/08 05:48:07;;;;;;;;;18.33;17.33;;;;;7.06;72.13;-19402.16;5059432;28;45379;-93
2022/12/08 05:50:32;;;;;;;;;23.00;20.00;;;;;7.59;72.16;-19416.09;5059859;28;47504;-93
2022/12/08 05:52:58;;;;;;;;;24.33;22.67;;;;;7.56;72.57;-19415.28;5056229;28;45546;-94
2022/12/08 05:55:23;;;;;;;;;25.00;22.67;;;;;7.41;72.64;-19411.34;5063367;28;45365;-92
2022/12/08 05:57:48;;;;;;;;;24.67;23.33;;;;;6.91;72.52;-19398.22;5058379;28;45609;-93
2022/12/08 06:00:14;;;;;;;;;19.33;19.00;;;;;7.53;72.57;-19414.59;5061956;28;47537;-95
2022/12/08 06:02:39;;;;;;;;;25.00;23.33;;;;;7.37;72.56;-19410.28;5073200;22;45629;-89
2022/12/08 06:05:05;;;;;;;;;22.00;21.33;;;;;7.42;72.75;-19411.63;5036772;28;45971;-89
2022/12/08 06:07:31;;;;;;;;;24.00;21.00;;;;;7.55;72.33;-19415.00;5045861;22;45506;-94
2022/12/08 06:09:56;;;;;;;;;15.33;14.33;;;;;6.18;72.04;-19378.72;5052174;28;47122;-96
2022/12/08 06:12:22;;;;;;;;;18.33;17.00;;;;;6.98;72.15;-19399.97;5069749;28;45671;-94
2022/12/08 06:14:47;;;;;;;;;21.67;15.67;;;;;7.45;71.84;-19412.44;5035751;28;45746;-93
2022/12/08 06:17:12;;;;;;;;;21.00;15.00;;;;;6.90;72.12;-19397.94;5049682;28;45536;-92
2022/12/08 06:19:37;;;;;;;;;21.33;21.33;;;;;7.27;71.73;-19407.69;5055853;28;47275;-89
2022/12/08 06:22:03;;;;;;;;;24.33;21.00;;;;;6.58;72.10;-19389.28;5051426;28;45545;-91
2022/12/08 06:24:28;;;;;;;;;19.00;18.00;;;;;6.89;72.08;-19397.53;5059762;28;45455;-91
2022/12/08 06:26:54;;;;;;;;;25.33;24.33;;;;;7.08;71.84;-19402.69;5038378;28;45683;-88
2022/12/08 06:29:19;;;;;;;;;20.00;19.33;;;;;7.66;71.89;-19417.84;5058047;28;48088;-90
2022/12/08 06:31:45;;;;;;;;;22.00;21.33;;;;;7.14;71.71;-19404.31;5050348;28;45708;-92
2022/12/08 06:34:10;;;;;;;;;21.00;19.67;;;;;7.67;71.84;-19418.25;5059063;28;45912;-95
2022/12/08 06:36:36;;;;;;;;;24.00;21.00;;;;;7.69;71.64;-19418.81;5057545;28;45488;-94
2022/12/08 06:39:01;;;;;;;;;22.00;20.33;;;;;5.87;71.20;-19370.72;5065001;28;47366;-94
2022/12/08 06:41:27;;;;;;;;;26.33;21.67;;;;;5.87;71.23;-19370.56;5060484;28;45523;-94
2022/12/08 06:43:55;;;;;;;;;19.67;19.67;;;;;7.50;71.25;-19413.78;5045321;28;45593;-93
2022/12/08 06:46:20;;;;;;;;;18.33;18.33;;;;;7.73;71.46;-19419.75;5040984;28;45695;-92
2022/12/08 06:48:46;;;;;;;;;17.67;16.00;;;;;7.39;71.31;-19410.94;5050935;28;47130;-92
2022/12/08 06:51:14;;;;;;;;;17.33;16.67;;;;;6.56;71.35;-19388.88;5051067;28;45645;-93
2022/12/08 06:53:41;;;;;;;;;21.67;20.33;;;;;7.19;71.46;-19405.66;5034528;28;45595;-93
2022/12/08 06:56:07;;;;;;;;;19.33;15.67;;;;;7.55;70.78;-19415.00;5052792;28;45504;-92
2022/12/08 06:58:33;;;;;;;;;22.33;17.67;;;;;6.43;70.47;-19385.50;5054794;28;47116;-93
2022/12/08 07:01:10;;;;;;;;;21.00;15.67;;;;;7.45;70.92;-19412.44;5046529;28;45412;-94
2022/12/08 07:03:36;;;;;;;;;22.33;21.00;;;;;7.88;70.92;-19423.66;5034993;28;45569;-92
2022/12/08 07:06:02;;;;;;;;;24.67;23.33;;;;;7.70;71.06;-19419.06;5032646;28;45825;-95
2022/12/08 07:08:27;;;;;;;;;31.33;21.33;;;;;7.13;70.44;-19404.03;5048276;28;47554;-94
2022/12/08 07:10:52;;;;;;;;;24.67;20.67;;;;;7.49;70.48;-19413.53;5050723;28;46202;-93
2022/12/08 07:13:18;;;;;;;;;25.00;23.33;;;;;7.34;70.41;-19409.47;5037771;28;45315;-93
2022/12/08 07:15:43;;;;;;;;;24.67;20.00;;;;;6.72;70.64;-19393.06;5046834;28;45344;-90
2022/12/08 07:18:09;;;;;;;;;22.33;19.33;;;;;7.03;70.01;-19401.34;5053382;28;47204;-90
2022/12/08 07:20:34;;;;;;;;;17.33;16.00;;;;;6.49;69.84;-19387.13;5050653;28;45593;-90
2022/12/08 07:23:00;;;;;;;;;19.67;16.67;;;;;7.29;69.97;-19408.25;5047676;28;45381;-90
2022/12/08 07:25:25;;;;;;;;;26.33;22.00;;;;;7.91;70.12;-19424.63;5040059;28;45585;-90
2022/12/08 07:27:52;;;;;;;;;21.00;18.33;;;;;6.40;69.75;-19384.69;5047457;28;47381;-92
2022/12/08 07:30:18;;;;;;;;;21.67;19.00;;;;;7.93;70.09;-19425.03;5048554;28;45852;-91
2022/12/08 07:32:43;;;;;;;;;20.00;20.00;;;;;7.94;70.16;-19425.44;5055886;28;45552;-92
2022/12/08 07:35:09;;;;;;;;;23.00;18.33;;;;;7.19;70.19;-19405.66;5057143;28;45450;-93
2022/12/08 07:37:36;;;;;;;;;30.33;23.00;;;;;7.91;70.22;-19424.63;5075397;28;46877;-91
2022/12/08 07:40:02;;;;;;;;;24.33;21.67;;;;;7.32;70.52;-19409.06;5039495;28;45462;-91
2022/12/08 07:42:28;;;;;;;;;28.00;27.33;;;;;7.51;70.34;-19414.06;5040875;28;45388;-92
2022/12/08 07:44:53;;;;;;;;;26.67;24.67;;;;;7.50;70.46;-19413.78;5054931;28;45476;-92
2022/12/08 07:47:19;;;;;;;;;21.33;17.33;;;;;7.34;69.85;-19409.47;5055287;28;48394;-92
2022/12/08 07:49:44;;;;;;;;;18.67;18.67;;;;;7.73;70.01;-19419.88;5053941;28;45510;-93
2022/12/08 07:52:09;;;;;;;;;22.67;18.67;;;;;7.57;70.04;-19415.56;5036214;28;45643;-92
2022/12/08 07:54:35;;;;;;;;;22.00;21.33;;;;;6.85;70.22;-19396.47;5062784;28;45590;-90
2022/12/08 07:57:02;;;;;;;;;28.33;25.33;;;;;7.91;70.00;-19424.47;5040095;28;47256;-92
2022/12/08 07:59:28;;;;;;;;;19.00;18.00;;;;;7.60;69.60;-19416.50;5050377;28;45476;-92
2022/12/08 08:01:53;;;;;;;;;28.67;25.00;;;;;7.68;69.75;-19418.38;5057553;28;45536;-92
2022/12/08 08:04:18;;;;;;;;;28.33;25.67;;;;;7.11;69.40;-19403.50;5058102;28;45609;-93
2022/12/08 08:06:44;;;;;;;;;25.00;23.00;;;;;7.10;69.33;-19403.22;5074473;28;46996;-92
2022/12/08 08:09:09;;;;;;;;;22.67;22.00;;;;;7.11;69.48;-19403.50;5054599;28;45354;-92
2022/12/08 08:11:35;;;;;;;;;28.33;23.00;;;;;7.61;69.67;-19416.78;5050670;28;45327;-92
2022/12/08 08:14:00;;;;;;;;;20.67;20.67;;;;;7.83;69.63;-19422.59;5039589;28;45467;-94
2022/12/08 08:16:26;;;;;;;;;29.33;23.33;;;;;6.27;69.23;-19381.16;5039830;28;47401;-95
2022/12/08 08:18:52;;;;;;;;;25.00;22.67;;;;;8.07;69.92;-19428.81;5056292;28;45373;-95
2022/12/08 08:21:18;;;;;;;;;24.67;21.00;;;;;8.06;69.63;-19428.53;5055947;28;45395;-95
2022/12/08 08:23:43;;;;;;;;;28.67;25.67;;;;;8.03;69.71;-19427.88;5056866;28;45675;-95
2022/12/08 08:26:09;;;;;;;;;24.00;22.00;;;;;8.06;69.15;-19428.41;5056196;28;47272;-94
2022/12/08 08:28:34;;;;;;;;;18.67;18.67;;;;;7.92;69.41;-19424.75;5056323;28;45513;-94
2022/12/08 08:31:01;;;;;;;;;26.00;24.67;;;;;7.92;69.65;-19424.75;5063583;28;45875;-95
2022/12/08 08:33:26;;;;;;;;;32.00;25.67;;;;;8.13;69.57;-19430.31;5075615;28;45396;-94
2022/12/08 08:35:53;;;;;;;;;27.00;25.00;;;;;7.40;69.26;-19411.22;5064413;28;48038;-94
2022/12/08 08:38:18;;;;;;;;;26.33;23.00;;;;;8.11;69.32;-19429.91;5077814;28;45432;-95
2022/12/08 08:40:44;;;;;;;;;23.67;23.00;;;;;7.26;69.40;-19407.28;5047321;28;45368;-94
2022/12/08 08:43:27;;;;;;;;;22.00;17.67;;;;;8.12;69.30;-19430.16;5046558;28;45458;-94
2022/12/08 08:45:54;;;;;;;;;28.00;24.33;;;;;7.58;69.33;-19415.81;5059879;28;47529;-93
2022/12/08 08:48:20;;;;;;;;;29.00;26.67;;;;;8.11;69.16;-19429.75;5045637;28;45389;-94
2022/12/08 08:50:45;;;;;;;;;27.33;26.67;;;;;7.80;69.24;-19421.66;5052882;28;45633;-94
2022/12/08 08:53:10;;;;;;;;;29.33;27.00;;;;;7.51;69.42;-19414.06;5049781;28;45342;-94
2022/12/08 08:55:38;;;;;;;;;23.00;21.00;;;;;8.06;68.93;-19428.53;5053610;28;46771;-95
2022/12/08 08:58:03;;;;;;;;;24.33;22.00;;;;;7.48;69.51;-19413.13;5074488;28;45380;-94
2022/12/08 09:00:29;;;;;;;;;36.00;31.67;;;;;7.46;69.30;-19412.72;5061717;28;45298;-95
2022/12/08 09:02:54;;;;;;;;;28.00;25.67;;;;;8.10;69.46;-19429.47;5054027;28;45484;-95
2022/12/08 09:05:19;;;;;;;;;28.00;24.33;;;;;7.48;69.08;-19413.13;5043954;28;46993;-94
2022/12/08 09:07:45;;;;;;;;;29.67;24.00;;;;;8.09;68.88;-19429.22;5046357;28;45442;-95
2022/12/08 09:13:04;;;;;;;;;22.33;21.33;;;;;7.83;69.03;-19422.59;5088970;22;46970;-91
2022/12/08 09:15:30;;;;;;;;;24.00;20.67;;;;;8.07;68.84;-19428.69;5018183;28;45290;-90
2022/12/08 09:17:55;;;;;;;;;24.67;23.67;;;;;7.28;68.92;-19407.84;5016117;28;45607;-90
2022/12/08 09:20:21;;;;;;;;;21.33;21.33;;;;;7.00;68.85;-19400.53;5011477;28;45328;-90
2022/12/08 09:22:51;;;;;;;;;21.67;21.00;;;;;6.04;69.00;-19375.06;5015269;28;45608;-91
2022/12/08 09:28:19;;;;;;;;;27.33;25.00;;;;;6.87;69.03;-19397.00;5276017;23;45558;-90
2022/12/08 09:43:38;;;;;;;;;30.00;25.00;;;;;7.99;69.56;-19426.66;4989941;28;45610;-91
2022/12/08 09:49:40;;;;;;;;;23.33;21.67;;;;;6.57;68.68;-19389.00;5265764;22;46002;-94
2022/12/08 09:54:41;;;;;;;;;27.00;21.33;;;;;6.88;69.27;-19397.41;5055220;22;45357;-84
2022/12/08 09:57:33;;;;;;;;;29.33;24.33;;;;;7.54;69.04;-19414.88;5010770;28;45436;-81
2022/12/08 10:00:03;;;;;;;;;39.00;27.00;;;;;6.64;68.84;-19391.03;5006705;28;46170;-80
2022/12/08 10:05:04;;;;;;;;;23.67;22.33;;;;;8.06;69.07;-19428.53;5306530;22;46965;-87
2022/12/08 10:07:42;;;;;;;;;29.33;25.67;;;;;8.16;68.65;-19431.25;5036903;28;45618;-87
2022/12/08 10:10:26;;;;;;;;;29.67;22.67;;;;;8.20;68.78;-19432.31;5036347;28;46895;-87
2022/12/08 10:13:05;;;;;;;;;25.67;22.00;;;;;7.63;68.11;-19417.03;5037986;28;45655;-87
2022/12/08 10:16:08;;;;;;;;;27.33;22.67;;;;;8.23;68.32;-19433.00;5036517;28;45401;-87
2022/12/08 10:18:34;;;;;;;;;24.00;21.33;;;;;8.01;68.06;-19427.31;5039292;28;45381;-87
2022/12/08 10:21:17;;;;;;;;;21.00;21.00;;;;;8.09;68.24;-19429.22;5037057;28;47248;-88
2022/12/08 10:23:57;;;;;;;;;29.00;22.00;;;;;8.06;67.79;-19428.53;5025553;28;45911;-88
2022/12/08 10:26:23;;;;;;;;;22.67;17.33;;;;;8.06;67.34;-19428.41;5020526;28;45588;-88
2022/12/08 10:28:49;;;;;;;;;30.00;22.33;;;;;7.74;66.96;-19420.16;5051827;28;45374;-88
2022/12/08 10:31:15;;;;;;;;;27.00;21.67;;;;;8.33;66.96;-19435.56;5037831;28;47460;-89
2022/12/08 10:33:41;;;;;;;;;26.00;17.67;;;;;8.36;67.36;-19436.38;5039855;28;45382;-88
2022/12/08 10:36:09;;;;;;;;;21.33;21.00;;;;;8.35;67.65;-19436.13;5049670;28;45503;-88
2022/12/08 10:38:37;;;;;;;;;23.33;18.67;;;;;7.98;67.52;-19426.38;5020127;28;45337;-89
2022/12/08 10:41:08;;;;;;;;;26.00;24.00;;;;;8.35;67.77;-19436.25;5012628;28;47165;-90
2022/12/08 10:43:45;;;;;;;;;24.33;23.33;;;;;8.18;67.27;-19431.66;5043217;28;45461;-88
2022/12/08 10:46:14;;;;;;;;;30.00;25.00;;;;;8.34;67.60;-19435.97;5028312;28;45807;-89
2022/12/08 10:49:09;;;;;;;;;23.00;20.33;;;;;8.37;67.01;-19436.66;5038428;28;46083;-88
2022/12/08 10:51:40;;;;;;;;;25.33;22.67;;;;;8.12;67.13;-19430.03;5050354;28;45512;-90
2022/12/08 10:54:36;;;;;;;;;33.67;28.67;;;;;8.41;67.46;-19437.75;5047847;28;45666;-90
2022/12/08 10:57:01;;;;;;;;;34.67;25.33;;;;;8.19;67.40;-19431.91;5033827;28;45454;-89
2022/12/08 10:59:27;;;;;;;;;21.67;20.67;;;;;8.04;67.14;-19428.13;5054242;28;45473;-88
2022/12/08 11:01:55;;;;;;;;;27.00;22.00;;;;;8.00;66.69;-19427.06;5035737;28;47307;-88
2022/12/08 11:04:39;;;;;;;;;35.00;31.50;;;;;8.30;66.99;-19434.91;5024348;28;45317;-90
2022/12/08 11:07:07;;;;;;;;;24.67;24.67;;;;;8.45;67.22;-19438.81;5044396;28;45455;-89
2022/12/08 11:09:47;;;;;;;;;31.00;27.67;;;;;8.28;66.68;-19434.34;5024634;28;45504;-90
2022/12/08 11:12:15;;;;;;;;;33.00;28.67;;;;;8.40;67.20;-19437.59;5032255;28;45444;-89
2022/12/08 11:14:40;;;;;;;;;25.67;24.67;;;;;8.50;66.51;-19440.03;5025034;28;45450;-86
2022/12/08 11:17:12;;;;;;;;;26.33;25.00;;;;;7.93;66.73;-19425.16;5042108;28;45322;-86
2022/12/08 11:20:00;;;;;;;;;24.00;22.33;;;;;8.23;66.17;-19433.13;5036546;28;45365;-86
2022/12/08 11:22:31;;;;;;;;;20.67;19.00;;;;;8.54;66.34;-19441.13;5010509;28;47277;-87
2022/12/08 11:25:11;;;;;;;;;25.67;24.00;;;;;8.53;66.29;-19440.84;5035888;28;46013;-86
2022/12/08 11:27:40;;;;;;;;;24.33;20.00;;;;;7.86;66.61;-19423.13;5035588;28;45344;-85
2022/12/08 11:30:13;;;;;;;;;24.33;24.33;;;;;8.60;66.55;-19442.75;5037421;28;45833;-87
2022/12/08 11:32:43;;;;;;;;;22.67;22.00;;;;;8.19;66.28;-19432.06;5036637;28;46267;-86
2022/12/08 11:35:19;;;;;;;;;26.33;23.00;;;;;7.97;66.07;-19426.09;5031330;28;45791;-86
2022/12/08 11:37:44;;;;;;;;;29.33;26.33;;;;;8.32;66.30;-19435.31;5034845;28;45577;-86
2022/12/08 11:40:19;;;;;;;;;29.33;26.00;;;;;8.32;66.04;-19435.44;5029543;28;45652;-86
2022/12/08 11:43:05;;;;;;;;;25.33;25.33;;;;;8.38;66.31;-19436.94;5037193;28;45670;-86
2022/12/08 11:45:34;;;;;;;;;31.25;26.75;;;;;8.68;66.17;-19444.78;5034962;28;45446;-86
2022/12/08 11:48:12;;;;;;;;;24.33;22.33;;;;;8.19;66.11;-19431.91;5034459;28;45809;-88
2022/12/08 11:50:46;;;;;;;;;36.00;31.33;;;;;7.89;66.51;-19423.94;5036354;28;45316;-87
2022/12/08 11:53:22;;;;;;;;;27.33;25.00;;;;;8.82;66.14;-19448.69;5034558;28;46277;-87
2022/12/08 11:55:56;;;;;;;;;31.67;28.00;;;;;8.42;66.02;-19438.16;5030525;28;45492;-86
2022/12/08 11:58:28;;;;;;;;;26.33;23.67;;;;;8.94;66.16;-19451.78;5011410;28;45521;-86
2022/12/08 12:00:53;;;;;;;;;26.00;24.00;;;;;8.96;65.86;-19452.22;5029862;28;45445;-86